sensor_id;sensor_type;location;lat;lon;timestamp;P1;durP1;ratioP1;P2;durP2;ratioP2
18334;SDS011;9293;49.524;10.964;2024-03-08T00:00:48;26.80;;;16.83;;
18334;SDS011;9293;49.524;10.964;2024-03-08T00:03:16;27.75;;;17.50;;
18334;SDS011;9293;49.524;10.964;2024-03-08T00:05:44;25.85;;;17.23;;
18334;SDS011;9293;49.524;10.964;2024-03-08T00:08:13;24.30;;;16.45;;
18334;SDS011;9293;49.524;10.964;2024-03-08T00:10:41;25.33;;;17.20;;
18334;SDS011;9293;49.524;10.964;2024-03-08T00:13:09;25.98;;;17.63;;
18334;SDS011;9293;49.524;10.964;2024-03-08T00:15:37;27.73;;;17.25;;
18334;SDS011;9293;49.524;10.964;2024-03-08T00:18:06;24.10;;;17.45;;
18334;SDS011;9293;49.524;10.964;2024-03-08T00:20:34;25.75;;;17.05;;
18334;SDS011;9293;49.524;10.964;2024-03-08T00:23:03;26.13;;;17.65;;
18334;SDS011;9293;49.524;10.964;2024-03-08T00:25:31;28.83;;;18.17;;
18334;SDS011;9293;49.524;10.964;2024-03-08T00:27:59;25.33;;;17.58;;
18334;SDS011;9293;49.524;10.964;2024-03-08T00:30:27;26.50;;;17.65;;
18334;SDS011;9293;49.524;10.964;2024-03-08T00:32:56;26.23;;;17.52;;
18334;SDS011;9293;49.524;10.964;2024-03-08T00:35:24;28.38;;;17.20;;
18334;SDS011;9293;49.524;10.964;2024-03-08T00:37:52;28.77;;;17.20;;
18334;SDS011;9293;49.524;10.964;2024-03-08T00:40:24;25.05;;;17.73;;
18334;SDS011;9293;49.524;10.964;2024-03-08T00:42:52;26.02;;;17.33;;
18334;SDS011;9293;49.524;10.964;2024-03-08T00:45:23;28.42;;;17.20;;
18334;SDS011;9293;49.524;10.964;2024-03-08T00:47:54;28.15;;;17.63;;
18334;SDS011;9293;49.524;10.964;2024-03-08T00:50:24;24.17;;;16.92;;
18334;SDS011;9293;49.524;10.964;2024-03-08T00:52:52;24.73;;;16.10;;
18334;SDS011;9293;49.524;10.964;2024-03-08T00:55:21;23.98;;;16.85;;
18334;SDS011;9293;49.524;10.964;2024-03-08T00:57:49;26.30;;;18.85;;
18334;SDS011;9293;49.524;10.964;2024-03-08T01:00:18;28.98;;;18.45;;
18334;SDS011;9293;49.524;10.964;2024-03-08T01:02:48;29.27;;;19.55;;
18334;SDS011;9293;49.524;10.964;2024-03-08T01:05:17;28.17;;;18.67;;
18334;SDS011;9293;49.524;10.964;2024-03-08T01:07:45;28.05;;;17.88;;
18334;SDS011;9293;49.524;10.964;2024-03-08T01:10:14;28.88;;;17.88;;
18334;SDS011;9293;49.524;10.964;2024-03-08T01:12:42;26.48;;;17.30;;
18334;SDS011;9293;49.524;10.964;2024-03-08T01:15:10;26.60;;;17.90;;
18334;SDS011;9293;49.524;10.964;2024-03-08T01:17:39;34.80;;;18.58;;
18334;SDS011;9293;49.524;10.964;2024-03-08T01:20:07;28.65;;;17.63;;
18334;SDS011;9293;49.524;10.964;2024-03-08T01:22:38;28.85;;;18.48;;
18334;SDS011;9293;49.524;10.964;2024-03-08T01:25:08;26.58;;;18.05;;
18334;SDS011;9293;49.524;10.964;2024-03-08T01:27:37;28.70;;;18.58;;
18334;SDS011;9293;49.524;10.964;2024-03-08T01:30:05;25.23;;;18.17;;
18334;SDS011;9293;49.524;10.964;2024-03-08T01:32:34;27.45;;;17.58;;
18334;SDS011;9293;49.524;10.964;2024-03-08T01:35:02;30.92;;;17.95;;
18334;SDS011;9293;49.524;10.964;2024-03-08T01:37:31;26.42;;;17.75;;
18334;SDS011;9293;49.524;10.964;2024-03-08T01:39:59;29.60;;;18.15;;
18334;SDS011;9293;49.524;10.964;2024-03-08T01:42:27;26.65;;;17.80;;
18334;SDS011;9293;49.524;10.964;2024-03-08T01:44:55;27.98;;;18.25;;
18334;SDS011;9293;49.524;10.964;2024-03-08T01:47:24;25.85;;;17.73;;
18334;SDS011;9293;49.524;10.964;2024-03-08T01:49:54;26.05;;;17.98;;
18334;SDS011;9293;49.524;10.964;2024-03-08T01:52:22;25.38;;;18.35;;
18334;SDS011;9293;49.524;10.964;2024-03-08T01:54:53;25.80;;;17.03;;
18334;SDS011;9293;49.524;10.964;2024-03-08T01:57:21;28.80;;;18.70;;
18334;SDS011;9293;49.524;10.964;2024-03-08T01:59:50;26.73;;;18.08;;
18334;SDS011;9293;49.524;10.964;2024-03-08T02:02:18;31.25;;;18.67;;
18334;SDS011;9293;49.524;10.964;2024-03-08T02:04:47;28.30;;;18.00;;
18334;SDS011;9293;49.524;10.964;2024-03-08T02:07:16;28.58;;;18.23;;
18334;SDS011;9293;49.524;10.964;2024-03-08T02:09:44;30.13;;;18.27;;
18334;SDS011;9293;49.524;10.964;2024-03-08T02:12:12;26.52;;;17.75;;
18334;SDS011;9293;49.524;10.964;2024-03-08T02:14:41;28.88;;;18.33;;
18334;SDS011;9293;49.524;10.964;2024-03-08T02:17:11;28.67;;;17.98;;
18334;SDS011;9293;49.524;10.964;2024-03-08T02:19:39;26.83;;;18.60;;
18334;SDS011;9293;49.524;10.964;2024-03-08T02:22:07;29.38;;;18.83;;
18334;SDS011;9293;49.524;10.964;2024-03-08T02:27:10;29.40;;;19.38;;
18334;SDS011;9293;49.524;10.964;2024-03-08T02:29:40;31.63;;;18.98;;
18334;SDS011;9293;49.524;10.964;2024-03-08T02:32:10;28.20;;;18.30;;
18334;SDS011;9293;49.524;10.964;2024-03-08T02:34:39;27.20;;;18.20;;
18334;SDS011;9293;49.524;10.964;2024-03-08T02:37:07;28.23;;;18.83;;
18334;SDS011;9293;49.524;10.964;2024-03-08T02:39:36;27.80;;;19.00;;
18334;SDS011;9293;49.524;10.964;2024-03-08T02:42:04;27.05;;;18.48;;
18334;SDS011;9293;49.524;10.964;2024-03-08T02:44:32;26.80;;;18.23;;
18334;SDS011;9293;49.524;10.964;2024-03-08T02:47:01;26.05;;;17.67;;
18334;SDS011;9293;49.524;10.964;2024-03-08T02:49:30;31.13;;;18.48;;
18334;SDS011;9293;49.524;10.964;2024-03-08T02:51:58;26.38;;;17.92;;
18334;SDS011;9293;49.524;10.964;2024-03-08T02:54:27;26.75;;;17.92;;
18334;SDS011;9293;49.524;10.964;2024-03-08T02:56:55;26.73;;;18.33;;
18334;SDS011;9293;49.524;10.964;2024-03-08T02:59:24;27.85;;;18.23;;
18334;SDS011;9293;49.524;10.964;2024-03-08T03:01:52;28.02;;;19.20;;
18334;SDS011;9293;49.524;10.964;2024-03-08T03:04:20;29.83;;;19.80;;
18334;SDS011;9293;49.524;10.964;2024-03-08T03:06:48;28.50;;;18.63;;
18334;SDS011;9293;49.524;10.964;2024-03-08T03:09:17;28.92;;;18.67;;
18334;SDS011;9293;49.524;10.964;2024-03-08T03:11:51;26.48;;;17.67;;
18334;SDS011;9293;49.524;10.964;2024-03-08T03:14:19;27.60;;;19.13;;
18334;SDS011;9293;49.524;10.964;2024-03-08T03:16:48;28.55;;;18.73;;
18334;SDS011;9293;49.524;10.964;2024-03-08T03:19:17;29.20;;;19.70;;
18334;SDS011;9293;49.524;10.964;2024-03-08T03:21:46;27.75;;;18.92;;
18334;SDS011;9293;49.524;10.964;2024-03-08T03:24:14;29.77;;;19.33;;
18334;SDS011;9293;49.524;10.964;2024-03-08T03:26:43;28.05;;;18.77;;
18334;SDS011;9293;49.524;10.964;2024-03-08T03:29:13;30.23;;;19.65;;
18334;SDS011;9293;49.524;10.964;2024-03-08T03:31:43;29.90;;;19.08;;
18334;SDS011;9293;49.524;10.964;2024-03-08T03:34:14;28.25;;;18.90;;
18334;SDS011;9293;49.524;10.964;2024-03-08T03:36:43;27.63;;;18.83;;
18334;SDS011;9293;49.524;10.964;2024-03-08T03:39:14;27.23;;;19.08;;
18334;SDS011;9293;49.524;10.964;2024-03-08T03:41:48;26.83;;;18.17;;
18334;SDS011;9293;49.524;10.964;2024-03-08T03:44:20;27.17;;;18.33;;
18334;SDS011;9293;49.524;10.964;2024-03-08T03:46:51;28.90;;;20.00;;
18334;SDS011;9293;49.524;10.964;2024-03-08T03:49:19;29.83;;;19.35;;
18334;SDS011;9293;49.524;10.964;2024-03-08T03:51:48;26.38;;;19.23;;
18334;SDS011;9293;49.524;10.964;2024-03-08T03:54:16;31.52;;;18.38;;
18334;SDS011;9293;49.524;10.964;2024-03-08T03:56:44;29.92;;;19.85;;
18334;SDS011;9293;49.524;10.964;2024-03-08T03:59:14;29.35;;;19.17;;
18334;SDS011;9293;49.524;10.964;2024-03-08T04:01:42;29.88;;;19.23;;
18334;SDS011;9293;49.524;10.964;2024-03-08T04:04:11;30.13;;;20.20;;
18334;SDS011;9293;49.524;10.964;2024-03-08T04:06:40;30.13;;;19.52;;
18334;SDS011;9293;49.524;10.964;2024-03-08T04:09:08;29.95;;;19.80;;
18334;SDS011;9293;49.524;10.964;2024-03-08T04:11:37;32.38;;;19.70;;
18334;SDS011;9293;49.524;10.964;2024-03-08T04:14:05;30.88;;;19.60;;
18334;SDS011;9293;49.524;10.964;2024-03-08T04:16:33;30.17;;;19.70;;
18334;SDS011;9293;49.524;10.964;2024-03-08T04:19:02;29.70;;;19.95;;
18334;SDS011;9293;49.524;10.964;2024-03-08T04:21:32;28.23;;;18.60;;
18334;SDS011;9293;49.524;10.964;2024-03-08T04:24:00;28.88;;;19.50;;
18334;SDS011;9293;49.524;10.964;2024-03-08T04:26:28;31.48;;;20.77;;
18334;SDS011;9293;49.524;10.964;2024-03-08T04:28:57;29.35;;;19.92;;
18334;SDS011;9293;49.524;10.964;2024-03-08T04:31:25;29.08;;;19.65;;
18334;SDS011;9293;49.524;10.964;2024-03-08T04:33:54;28.95;;;19.25;;
18334;SDS011;9293;49.524;10.964;2024-03-08T04:36:22;29.17;;;18.83;;
18334;SDS011;9293;49.524;10.964;2024-03-08T04:38:52;29.92;;;19.35;;
18334;SDS011;9293;49.524;10.964;2024-03-08T04:41:20;29.52;;;20.10;;
18334;SDS011;9293;49.524;10.964;2024-03-08T04:43:50;29.63;;;19.13;;
18334;SDS011;9293;49.524;10.964;2024-03-08T04:46:19;30.08;;;20.02;;
18334;SDS011;9293;49.524;10.964;2024-03-08T04:48:47;29.40;;;20.38;;
18334;SDS011;9293;49.524;10.964;2024-03-08T04:51:16;31.88;;;20.27;;
18334;SDS011;9293;49.524;10.964;2024-03-08T04:53:44;28.77;;;19.40;;
18334;SDS011;9293;49.524;10.964;2024-03-08T04:56:13;30.02;;;21.40;;
18334;SDS011;9293;49.524;10.964;2024-03-08T04:58:41;35.72;;;21.88;;
18334;SDS011;9293;49.524;10.964;2024-03-08T05:01:09;32.47;;;21.15;;
18334;SDS011;9293;49.524;10.964;2024-03-08T05:03:38;34.38;;;21.73;;
18334;SDS011;9293;49.524;10.964;2024-03-08T05:06:06;33.17;;;21.80;;
18334;SDS011;9293;49.524;10.964;2024-03-08T05:08:35;34.80;;;21.80;;
18334;SDS011;9293;49.524;10.964;2024-03-08T05:11:03;32.70;;;21.95;;
18334;SDS011;9293;49.524;10.964;2024-03-08T05:13:46;29.90;;;20.98;;
18334;SDS011;9293;49.524;10.964;2024-03-08T05:16:15;32.40;;;20.80;;
18334;SDS011;9293;49.524;10.964;2024-03-08T05:18:43;34.47;;;21.70;;
18334;SDS011;9293;49.524;10.964;2024-03-08T05:21:12;33.63;;;21.80;;
18334;SDS011;9293;49.524;10.964;2024-03-08T05:23:45;30.80;;;20.58;;
18334;SDS011;9293;49.524;10.964;2024-03-08T05:26:14;31.05;;;20.95;;
18334;SDS011;9293;49.524;10.964;2024-03-08T05:28:42;31.13;;;20.98;;
18334;SDS011;9293;49.524;10.964;2024-03-08T05:31:14;32.28;;;21.52;;
18334;SDS011;9293;49.524;10.964;2024-03-08T05:33:48;32.63;;;21.65;;
18334;SDS011;9293;49.524;10.964;2024-03-08T05:36:17;31.77;;;22.05;;
18334;SDS011;9293;49.524;10.964;2024-03-08T05:38:45;31.77;;;21.35;;
18334;SDS011;9293;49.524;10.964;2024-03-08T05:41:13;37.33;;;22.05;;
18334;SDS011;9293;49.524;10.964;2024-03-08T05:43:42;34.35;;;23.23;;
18334;SDS011;9293;49.524;10.964;2024-03-08T05:46:11;33.75;;;22.33;;
18334;SDS011;9293;49.524;10.964;2024-03-08T05:48:43;35.90;;;23.52;;
18334;SDS011;9293;49.524;10.964;2024-03-08T05:51:12;34.85;;;22.33;;
18334;SDS011;9293;49.524;10.964;2024-03-08T05:53:40;36.05;;;23.55;;
18334;SDS011;9293;49.524;10.964;2024-03-08T05:56:08;34.13;;;22.63;;
18334;SDS011;9293;49.524;10.964;2024-03-08T05:58:37;35.53;;;23.10;;
18334;SDS011;9293;49.524;10.964;2024-03-08T06:01:05;38.70;;;23.60;;
18334;SDS011;9293;49.524;10.964;2024-03-08T06:03:36;39.85;;;23.90;;
18334;SDS011;9293;49.524;10.964;2024-03-08T06:06:04;35.00;;;23.33;;
18334;SDS011;9293;49.524;10.964;2024-03-08T06:08:32;40.83;;;25.65;;
18334;SDS011;9293;49.524;10.964;2024-03-08T06:11:01;38.33;;;24.70;;
18334;SDS011;9293;49.524;10.964;2024-03-08T06:13:30;37.65;;;24.48;;
18334;SDS011;9293;49.524;10.964;2024-03-08T06:15:59;34.80;;;22.65;;
18334;SDS011;9293;49.524;10.964;2024-03-08T06:18:28;37.38;;;22.90;;
18334;SDS011;9293;49.524;10.964;2024-03-08T06:20:56;33.70;;;22.88;;
18334;SDS011;9293;49.524;10.964;2024-03-08T06:23:25;34.00;;;23.52;;
18334;SDS011;9293;49.524;10.964;2024-03-08T06:26:05;34.85;;;22.67;;
18334;SDS011;9293;49.524;10.964;2024-03-08T06:28:33;31.83;;;21.42;;
18334;SDS011;9293;49.524;10.964;2024-03-08T06:31:04;30.98;;;21.77;;
18334;SDS011;9293;49.524;10.964;2024-03-08T06:33:34;30.95;;;21.45;;
18334;SDS011;9293;49.524;10.964;2024-03-08T06:36:03;33.85;;;22.35;;
18334;SDS011;9293;49.524;10.964;2024-03-08T06:38:31;30.25;;;21.00;;
18334;SDS011;9293;49.524;10.964;2024-03-08T06:41:00;32.55;;;21.60;;
18334;SDS011;9293;49.524;10.964;2024-03-08T06:43:30;31.70;;;22.40;;
18334;SDS011;9293;49.524;10.964;2024-03-08T06:46:01;31.77;;;21.67;;
18334;SDS011;9293;49.524;10.964;2024-03-08T06:48:31;30.48;;;23.13;;
18334;SDS011;9293;49.524;10.964;2024-03-08T06:51:00;33.10;;;23.17;;
18334;SDS011;9293;49.524;10.964;2024-03-08T06:53:28;30.52;;;21.98;;
18334;SDS011;9293;49.524;10.964;2024-03-08T06:55:56;30.92;;;22.10;;
18334;SDS011;9293;49.524;10.964;2024-03-08T06:58:26;28.90;;;21.88;;
18334;SDS011;9293;49.524;10.964;2024-03-08T07:00:55;30.90;;;22.38;;
18334;SDS011;9293;49.524;10.964;2024-03-08T07:03:25;31.73;;;21.85;;
18334;SDS011;9293;49.524;10.964;2024-03-08T07:05:56;29.33;;;21.38;;
18334;SDS011;9293;49.524;10.964;2024-03-08T07:08:26;31.75;;;21.50;;
18334;SDS011;9293;49.524;10.964;2024-03-08T07:10:58;27.80;;;20.95;;
18334;SDS011;9293;49.524;10.964;2024-03-08T07:13:30;29.27;;;21.63;;
18334;SDS011;9293;49.524;10.964;2024-03-08T07:15:58;30.88;;;22.15;;
18334;SDS011;9293;49.524;10.964;2024-03-08T07:18:28;33.20;;;22.52;;
18334;SDS011;9293;49.524;10.964;2024-03-08T07:20:57;26.58;;;21.27;;
18334;SDS011;9293;49.524;10.964;2024-03-08T07:23:29;28.33;;;21.17;;
18334;SDS011;9293;49.524;10.964;2024-03-08T07:26:17;28.08;;;21.58;;
18334;SDS011;9293;49.524;10.964;2024-03-08T07:28:47;27.98;;;21.02;;
18334;SDS011;9293;49.524;10.964;2024-03-08T07:31:18;27.50;;;20.42;;
18334;SDS011;9293;49.524;10.964;2024-03-08T07:34:06;27.30;;;20.52;;
18334;SDS011;9293;49.524;10.964;2024-03-08T07:36:45;26.50;;;20.48;;
18334;SDS011;9293;49.524;10.964;2024-03-08T07:39:20;26.20;;;20.38;;
18334;SDS011;9293;49.524;10.964;2024-03-08T07:41:52;26.23;;;20.80;;
18334;SDS011;9293;49.524;10.964;2024-03-08T07:44:32;25.45;;;20.38;;
18334;SDS011;9293;49.524;10.964;2024-03-08T07:47:05;23.75;;;19.60;;
18334;SDS011;9293;49.524;10.964;2024-03-08T07:49:45;26.30;;;20.00;;
18334;SDS011;9293;49.524;10.964;2024-03-08T07:52:25;27.10;;;20.15;;
18334;SDS011;9293;49.524;10.964;2024-03-08T07:54:55;26.25;;;20.15;;
18334;SDS011;9293;49.524;10.964;2024-03-08T07:57:30;25.92;;;19.25;;
18334;SDS011;9293;49.524;10.964;2024-03-08T08:00:02;27.08;;;19.80;;
18334;SDS011;9293;49.524;10.964;2024-03-08T08:02:47;25.73;;;19.33;;
18334;SDS011;9293;49.524;10.964;2024-03-08T08:05:23;22.23;;;18.63;;
18334;SDS011;9293;49.524;10.964;2024-03-08T08:07:53;23.05;;;18.70;;
18334;SDS011;9293;49.524;10.964;2024-03-08T08:10:22;27.17;;;19.35;;
18334;SDS011;9293;49.524;10.964;2024-03-08T08:12:58;23.77;;;19.88;;
18334;SDS011;9293;49.524;10.964;2024-03-08T08:15:34;22.55;;;18.73;;
18334;SDS011;9293;49.524;10.964;2024-03-08T08:18:10;26.42;;;19.30;;
18334;SDS011;9293;49.524;10.964;2024-03-08T08:20:47;24.52;;;19.27;;
18334;SDS011;9293;49.524;10.964;2024-03-08T08:23:22;23.92;;;19.27;;
18334;SDS011;9293;49.524;10.964;2024-03-08T08:25:51;20.98;;;17.83;;
18334;SDS011;9293;49.524;10.964;2024-03-08T08:28:33;24.08;;;20.00;;
18334;SDS011;9293;49.524;10.964;2024-03-08T08:33:45;23.80;;;18.40;;
18334;SDS011;9293;49.524;10.964;2024-03-08T08:36:21;23.13;;;19.17;;
18334;SDS011;9293;49.524;10.964;2024-03-08T08:38:55;22.70;;;18.85;;
18334;SDS011;9293;49.524;10.964;2024-03-08T08:41:30;22.05;;;17.52;;
18334;SDS011;9293;49.524;10.964;2024-03-08T08:44:02;21.70;;;18.08;;
18334;SDS011;9293;49.524;10.964;2024-03-08T08:46:33;23.27;;;19.10;;
18334;SDS011;9293;49.524;10.964;2024-03-08T08:49:08;22.48;;;18.92;;
18334;SDS011;9293;49.524;10.964;2024-03-08T08:51:52;25.98;;;19.00;;
18334;SDS011;9293;49.524;10.964;2024-03-08T08:54:37;22.00;;;18.58;;
18334;SDS011;9293;49.524;10.964;2024-03-08T08:57:15;27.60;;;18.85;;
18334;SDS011;9293;49.524;10.964;2024-03-08T08:59:50;21.88;;;18.27;;
18334;SDS011;9293;49.524;10.964;2024-03-08T09:02:19;23.15;;;19.13;;
18334;SDS011;9293;49.524;10.964;2024-03-08T09:04:58;24.10;;;18.20;;
18334;SDS011;9293;49.524;10.964;2024-03-08T09:07:30;20.40;;;17.58;;
18334;SDS011;9293;49.524;10.964;2024-03-08T09:10:12;21.52;;;18.83;;
18334;SDS011;9293;49.524;10.964;2024-03-08T09:12:50;28.15;;;19.90;;
18334;SDS011;9293;49.524;10.964;2024-03-08T09:15:22;20.23;;;17.70;;
18334;SDS011;9293;49.524;10.964;2024-03-08T09:17:57;23.10;;;17.92;;
18334;SDS011;9293;49.524;10.964;2024-03-08T09:20:35;20.38;;;17.52;;
18334;SDS011;9293;49.524;10.964;2024-03-08T09:23:15;18.90;;;15.95;;
18334;SDS011;9293;49.524;10.964;2024-03-08T09:25:49;18.52;;;16.25;;
18334;SDS011;9293;49.524;10.964;2024-03-08T09:28:24;18.98;;;15.73;;
18334;SDS011;9293;49.524;10.964;2024-03-08T09:31:06;19.38;;;16.65;;
18334;SDS011;9293;49.524;10.964;2024-03-08T09:33:41;17.52;;;15.20;;
18334;SDS011;9293;49.524;10.964;2024-03-08T09:36:25;19.00;;;16.13;;
18334;SDS011;9293;49.524;10.964;2024-03-08T09:38:59;21.00;;;14.32;;
18334;SDS011;9293;49.524;10.964;2024-03-08T09:41:31;18.92;;;14.75;;
18334;SDS011;9293;49.524;10.964;2024-03-08T09:44:04;19.45;;;14.23;;
18334;SDS011;9293;49.524;10.964;2024-03-08T09:47:00;23.27;;;14.60;;
18334;SDS011;9293;49.524;10.964;2024-03-08T09:49:36;20.30;;;13.65;;
18334;SDS011;9293;49.524;10.964;2024-03-08T09:52:19;30.13;;;14.98;;
18334;SDS011;9293;49.524;10.964;2024-03-08T09:54:52;19.15;;;15.32;;
18334;SDS011;9293;49.524;10.964;2024-03-08T09:57:21;15.20;;;13.57;;
18334;SDS011;9293;49.524;10.964;2024-03-08T09:59:55;20.42;;;13.00;;
18334;SDS011;9293;49.524;10.964;2024-03-08T10:02:59;18.08;;;13.88;;
18334;SDS011;9293;49.524;10.964;2024-03-08T10:05:32;17.17;;;13.43;;
18334;SDS011;9293;49.524;10.964;2024-03-08T10:08:09;15.48;;;13.48;;
18334;SDS011;9293;49.524;10.964;2024-03-08T10:10:39;18.48;;;13.90;;
18334;SDS011;9293;49.524;10.964;2024-03-08T10:13:25;19.63;;;13.82;;
18334;SDS011;9293;49.524;10.964;2024-03-08T10:15:59;17.77;;;13.00;;
18334;SDS011;9293;49.524;10.964;2024-03-08T10:18:33;17.77;;;14.50;;
18334;SDS011;9293;49.524;10.964;2024-03-08T10:21:15;16.15;;;14.45;;
18334;SDS011;9293;49.524;10.964;2024-03-08T10:23:53;15.20;;;13.45;;
18334;SDS011;9293;49.524;10.964;2024-03-08T10:26:33;14.75;;;12.85;;
18334;SDS011;9293;49.524;10.964;2024-03-08T10:29:10;15.55;;;13.80;;
18334;SDS011;9293;49.524;10.964;2024-03-08T10:31:49;14.63;;;13.10;;
18334;SDS011;9293;49.524;10.964;2024-03-08T10:34:30;13.63;;;12.00;;
18334;SDS011;9293;49.524;10.964;2024-03-08T10:37:08;15.88;;;12.75;;
18334;SDS011;9293;49.524;10.964;2024-03-08T10:40:01;14.85;;;12.52;;
18334;SDS011;9293;49.524;10.964;2024-03-08T10:42:53;15.07;;;12.25;;
18334;SDS011;9293;49.524;10.964;2024-03-08T10:45:31;14.93;;;11.55;;
18334;SDS011;9293;49.524;10.964;2024-03-08T10:48:24;13.70;;;11.48;;
18334;SDS011;9293;49.524;10.964;2024-03-08T10:51:06;15.02;;;12.70;;
18334;SDS011;9293;49.524;10.964;2024-03-08T10:53:47;14.57;;;12.13;;
18334;SDS011;9293;49.524;10.964;2024-03-08T10:56:28;14.27;;;11.98;;
18334;SDS011;9293;49.524;10.964;2024-03-08T10:59:02;13.55;;;11.35;;
18334;SDS011;9293;49.524;10.964;2024-03-08T11:01:43;13.38;;;10.82;;
18334;SDS011;9293;49.524;10.964;2024-03-08T11:04:15;12.95;;;10.43;;
18334;SDS011;9293;49.524;10.964;2024-03-08T11:07:13;11.18;;;9.68;;
18334;SDS011;9293;49.524;10.964;2024-03-08T11:09:47;13.27;;;10.00;;
18334;SDS011;9293;49.524;10.964;2024-03-08T11:15:11;14.35;;;9.70;;
18334;SDS011;9293;49.524;10.964;2024-03-08T11:17:52;13.95;;;9.93;;
18334;SDS011;9293;49.524;10.964;2024-03-08T11:20:33;11.35;;;9.65;;
18334;SDS011;9293;49.524;10.964;2024-03-08T11:23:04;13.10;;;10.38;;
18334;SDS011;9293;49.524;10.964;2024-03-08T11:25:38;13.05;;;10.05;;
18334;SDS011;9293;49.524;10.964;2024-03-08T11:28:24;13.25;;;10.38;;
18334;SDS011;9293;49.524;10.964;2024-03-08T11:33:40;10.73;;;8.32;;
18334;SDS011;9293;49.524;10.964;2024-03-08T11:36:27;12.43;;;9.35;;
18334;SDS011;9293;49.524;10.964;2024-03-08T11:39:00;11.65;;;7.70;;
18334;SDS011;9293;49.524;10.964;2024-03-08T11:41:57;9.93;;;8.75;;
18334;SDS011;9293;49.524;10.964;2024-03-08T11:44:37;12.45;;;9.57;;
18334;SDS011;9293;49.524;10.964;2024-03-08T11:47:17;16.20;;;12.02;;
18334;SDS011;9293;49.524;10.964;2024-03-08T11:49:56;11.45;;;10.25;;
18334;SDS011;9293;49.524;10.964;2024-03-08T11:52:49;11.02;;;8.57;;
18334;SDS011;9293;49.524;10.964;2024-03-08T11:55:24;11.40;;;8.80;;
18334;SDS011;9293;49.524;10.964;2024-03-08T11:58:07;13.02;;;9.02;;
18334;SDS011;9293;49.524;10.964;2024-03-08T12:00:42;10.65;;;8.50;;
18334;SDS011;9293;49.524;10.964;2024-03-08T12:03:26;9.48;;;7.75;;
18334;SDS011;9293;49.524;10.964;2024-03-08T12:06:00;9.75;;;7.95;;
18334;SDS011;9293;49.524;10.964;2024-03-08T12:08:31;10.85;;;8.20;;
18334;SDS011;9293;49.524;10.964;2024-03-08T12:11:09;9.07;;;7.47;;
18334;SDS011;9293;49.524;10.964;2024-03-08T12:13:42;10.38;;;7.32;;
18334;SDS011;9293;49.524;10.964;2024-03-08T12:16:21;11.02;;;7.38;;
18334;SDS011;9293;49.524;10.964;2024-03-08T12:18:52;9.82;;;7.45;;
18334;SDS011;9293;49.524;10.964;2024-03-08T12:21:31;10.25;;;7.65;;
18334;SDS011;9293;49.524;10.964;2024-03-08T12:24:09;10.02;;;7.05;;
18334;SDS011;9293;49.524;10.964;2024-03-08T12:26:48;9.68;;;6.68;;
18334;SDS011;9293;49.524;10.964;2024-03-08T12:29:28;9.77;;;7.45;;
18334;SDS011;9293;49.524;10.964;2024-03-08T12:32:09;9.15;;;7.00;;
18334;SDS011;9293;49.524;10.964;2024-03-08T12:34:52;9.40;;;7.07;;
18334;SDS011;9293;49.524;10.964;2024-03-08T12:37:28;10.30;;;7.50;;
18334;SDS011;9293;49.524;10.964;2024-03-08T12:39:57;13.48;;;9.98;;
18334;SDS011;9293;49.524;10.964;2024-03-08T12:42:26;12.35;;;9.68;;
18334;SDS011;9293;49.524;10.964;2024-03-08T12:44:56;16.55;;;11.15;;
18334;SDS011;9293;49.524;10.964;2024-03-08T12:47:27;14.98;;;10.07;;
18334;SDS011;9293;49.524;10.964;2024-03-08T12:50:02;13.07;;;10.52;;
18334;SDS011;9293;49.524;10.964;2024-03-08T12:52:31;14.32;;;10.55;;
18334;SDS011;9293;49.524;10.964;2024-03-08T12:55:08;15.27;;;11.32;;
18334;SDS011;9293;49.524;10.964;2024-03-08T12:57:37;14.75;;;11.40;;
18334;SDS011;9293;49.524;10.964;2024-03-08T13:00:06;19.23;;;12.43;;
18334;SDS011;9293;49.524;10.964;2024-03-08T13:02:42;15.60;;;11.05;;
18334;SDS011;9293;49.524;10.964;2024-03-08T13:05:10;14.23;;;11.40;;
18334;SDS011;9293;49.524;10.964;2024-03-08T13:07:43;13.07;;;10.68;;
18334;SDS011;9293;49.524;10.964;2024-03-08T13:10:20;15.57;;;11.02;;
18334;SDS011;9293;49.524;10.964;2024-03-08T13:12:52;13.13;;;10.43;;
18334;SDS011;9293;49.524;10.964;2024-03-08T13:15:24;13.07;;;11.25;;
18334;SDS011;9293;49.524;10.964;2024-03-08T13:17:53;13.70;;;10.55;;
18334;SDS011;9293;49.524;10.964;2024-03-08T13:20:28;12.85;;;10.45;;
18334;SDS011;9293;49.524;10.964;2024-03-08T13:23:08;13.75;;;10.32;;
18334;SDS011;9293;49.524;10.964;2024-03-08T13:25:40;13.93;;;10.55;;
18334;SDS011;9293;49.524;10.964;2024-03-08T13:28:09;11.90;;;10.15;;
18334;SDS011;9293;49.524;10.964;2024-03-08T13:30:39;15.52;;;11.90;;
18334;SDS011;9293;49.524;10.964;2024-03-08T13:33:08;13.60;;;10.52;;
18334;SDS011;9293;49.524;10.964;2024-03-08T13:35:40;12.25;;;9.52;;
18334;SDS011;9293;49.524;10.964;2024-03-08T13:38:13;13.05;;;10.05;;
18334;SDS011;9293;49.524;10.964;2024-03-08T13:40:53;13.32;;;9.75;;
18334;SDS011;9293;49.524;10.964;2024-03-08T13:43:28;13.65;;;10.13;;
18334;SDS011;9293;49.524;10.964;2024-03-08T13:46:03;13.65;;;9.82;;
18334;SDS011;9293;49.524;10.964;2024-03-08T13:48:38;12.65;;;9.70;;
18334;SDS011;9293;49.524;10.964;2024-03-08T13:51:10;13.93;;;10.10;;
18334;SDS011;9293;49.524;10.964;2024-03-08T13:53:43;16.42;;;9.52;;
18334;SDS011;9293;49.524;10.964;2024-03-08T13:56:12;13.00;;;10.13;;
18334;SDS011;9293;49.524;10.964;2024-03-08T13:58:43;11.85;;;9.82;;
18334;SDS011;9293;49.524;10.964;2024-03-08T14:01:19;11.45;;;9.48;;
18334;SDS011;9293;49.524;10.964;2024-03-08T14:03:54;12.38;;;10.02;;
18334;SDS011;9293;49.524;10.964;2024-03-08T14:06:26;15.93;;;10.65;;
18334;SDS011;9293;49.524;10.964;2024-03-08T14:09:02;12.15;;;9.82;;
18334;SDS011;9293;49.524;10.964;2024-03-08T14:11:37;13.85;;;11.18;;
18334;SDS011;9293;49.524;10.964;2024-03-08T14:14:10;11.48;;;9.52;;
18334;SDS011;9293;49.524;10.964;2024-03-08T14:16:43;11.48;;;9.13;;
18334;SDS011;9293;49.524;10.964;2024-03-08T14:19:12;12.82;;;9.40;;
18334;SDS011;9293;49.524;10.964;2024-03-08T14:21:49;12.13;;;8.90;;
18334;SDS011;9293;49.524;10.964;2024-03-08T14:24:24;11.27;;;9.32;;
18334;SDS011;9293;49.524;10.964;2024-03-08T14:26:55;16.23;;;8.55;;
18334;SDS011;9293;49.524;10.964;2024-03-08T14:29:27;12.00;;;8.88;;
18334;SDS011;9293;49.524;10.964;2024-03-08T14:32:01;11.68;;;9.40;;
18334;SDS011;9293;49.524;10.964;2024-03-08T14:34:37;12.60;;;9.52;;
18334;SDS011;9293;49.524;10.964;2024-03-08T14:37:08;10.75;;;9.27;;
18334;SDS011;9293;49.524;10.964;2024-03-08T14:39:49;13.13;;;9.27;;
18334;SDS011;9293;49.524;10.964;2024-03-08T14:42:25;13.43;;;9.82;;
18334;SDS011;9293;49.524;10.964;2024-03-08T14:45:01;11.13;;;9.13;;
18334;SDS011;9293;49.524;10.964;2024-03-08T14:47:32;10.88;;;9.20;;
18334;SDS011;9293;49.524;10.964;2024-03-08T14:50:02;11.05;;;9.07;;
18334;SDS011;9293;49.524;10.964;2024-03-08T14:52:43;12.05;;;9.02;;
18334;SDS011;9293;49.524;10.964;2024-03-08T14:55:13;11.43;;;8.73;;
18334;SDS011;9293;49.524;10.964;2024-03-08T14:57:50;14.50;;;9.40;;
18334;SDS011;9293;49.524;10.964;2024-03-08T15:00:23;12.25;;;9.13;;
18334;SDS011;9293;49.524;10.964;2024-03-08T15:02:58;14.30;;;9.02;;
18334;SDS011;9293;49.524;10.964;2024-03-08T15:05:31;10.98;;;8.85;;